Latest METARs, TAFs and NOTAMs for ETSI


---------------------------------------------------------------------------
	(OBSERVATIONS)
ETSI 010920Z AUTO 24007KT 6000 // ////// 01/M03 Q0990 ///=
ETSI 010820Z AUTO 23002KT 7000 // ////// M01/M03 Q0990 ///=
ETSI 010720Z AUTO 18002KT 7000 // ////// M02/M03 Q0989 ///=
---------------------------------------------------------------------------
	(FC)
TAF ETSI 312300Z NIL=
---------------------------------------------------------------------------
	(TERMINAL AREA FORECAST)
ETSI 312300Z NIL=
---------------------------------------------------------------------------
	(NOTAMS)


ETSI P0204/15 AD ETSI: TWY S CLOSED BETWEEN GATE 3 AND GATE 4
    FOR WIDE WINGSPAN AIRCRAFT. DETAILED INFORMATION GIVEN BY
    INGO TOWER. 09 JAN 09:58 2015 UNTIL 27 FEB 16:00 2015. CREATED:
    09 JAN 10:05 2015

ETSI P0516/15 AD ETSI: AERODROME CLOSED EXCEPT CIVIL AIR TRAFFIC
    WITH PPR. 02 FEB 08:00 2015 UNTIL 02 FEB 16:00 2015. CREATED:
    26 JAN 08:46 2015

ETSI P0721/15 AD ETSI: RWY25R/07L VFR ONLY. 30 JAN 09:02 2015
    UNTIL 27 MAR 13:00 2015. CREATED: 30 JAN 09:11 2015

ETSI P8108/14 AD ETSI: LIMITED RADAR COVERAGE BELOW 5000FT MSL
    DETAILED INFORMATION BY INGO RADAR. 11 DEC 11:40 2014 UNTIL
    27 FEB 13:00 2015. CREATED: 11 DEC 11:46 2014

ETSI P8109/14 AD ETSI: NO SRA POSSIBLE. 11 DEC 11:42 2014 UNTIL
    27 FEB 13:00 2015. CREATED: 11 DEC 11:48 2014

ETSI P8110/14 AD ETSI: PAR RWY25R/07L OUT OF SERVICE. 11 DEC
    11:43 2014 UNTIL 27 FEB 13:00 2015. CREATED: 11 DEC 11:49
    2014

ETSI P8111/14 AD ETSI: PAR RWY25L/07R OUT OF SERVICE. 11 DEC
    11:45 2014 UNTIL 27 FEB 13:00 2015. CREATED: 11 DEC 11:50
    2014

ETSI P8112/14 AD ETSI: TACAN APCH RWY07R SUSPENDED. 11 DEC 11:49
    2014 UNTIL 27 FEB 13:00 2015. CREATED: 11 DEC 11:52 2014

ETSI U0091/14 AD ETSI INGOLDSTADT CENOR FLIP VOLUME 2 IAA RWY
    25R FAF ALT TO READ: 2900 FT MSL NOTAML WILL BE INCORPORATED
    IN FLIP DATED 05 FEB 2015. 05 DEC 09:30 2014 UNTIL 04 FEB
    23:59 2015. CREATED: 05 DEC 09:30 2014

---------------------------------------------------------------------------